Time;durP1;ratioP1;P1;durP2;ratioP2;P2;SDS_P1;SDS_P2;PMS_P1;PMS_P2;Temp;Humidity;BMP_temperature;BMP_pressure;BME280_temperature;BME280_humidity;BME280_pressure;Samples;Min_cycle;Max_cycle;Signal;HPM_P1;HPM_P2
2021/04/21 00:01:32;;;;;;;92.93;75.10;;;;;;;15.55;48.86;72309.03;4942189;29;20370;-84
2021/04/21 00:04:00;;;;;;;104.55;80.90;;;;;;;16.00;49.03;72366.63;4953075;29;20023;-84
2021/04/21 00:06:27;;;;;;;102.72;83.40;;;;;;;16.46;48.43;72415.88;4955789;28;20024;-83
2021/04/21 00:08:55;;;;;;;111.00;85.47;;;;;;;15.66;48.91;72327.13;4961822;28;20516;-85
2021/04/21 00:11:23;;;;;;;110.43;84.43;;;;;;;16.23;48.05;72386.78;4983167;28;20043;-84
2021/04/21 00:13:50;;;;;;;103.85;80.68;;;;;;;15.84;48.16;72342.53;4934932;29;20059;-83
2021/04/21 00:16:18;;;;;;;101.82;86.32;;;;;;;16.20;48.19;72386.56;4936881;29;20114;-84
2021/04/21 00:18:46;;;;;;;119.43;86.15;;;;;;;16.38;49.90;72404.75;4947032;29;20039;-85
2021/04/21 00:21:13;;;;;;;104.47;80.22;;;;;;;16.63;50.29;72439.00;4936349;29;20091;-84
2021/04/21 00:23:42;;;;;;;110.57;83.20;;;;;;;16.49;48.59;72420.09;4966552;28;20063;-84
2021/04/21 00:26:16;;;;;;;108.25;83.07;;;;;;;17.06;48.60;72485.31;4935126;29;20023;-84
2021/04/21 00:28:44;;;;;;;118.53;81.20;;;;;;;16.36;47.75;72402.34;4937019;29;20031;-83
2021/04/21 00:31:14;;;;;;;116.15;86.30;;;;;;;17.06;47.72;72483.13;4967557;28;20386;-84
2021/04/21 00:33:42;;;;;;;;;;;;;;;17.23;48.02;72505.06;4952880;29;20059;-83
2021/04/21 00:36:14;;;;;;;110.13;78.22;;;;;;;16.50;47.22;72418.50;4938556;29;19934;-84
2021/04/21 00:38:43;;;;;;;102.78;78.00;;;;;;;16.62;48.00;72432.25;4938551;29;20027;-84
2021/04/21 00:41:35;;;;;;;103.13;79.78;;;;;;;17.34;47.59;72515.47;4939822;28;20063;-85
2021/04/21 00:44:33;;;;;;;104.32;76.50;;;;;;;17.41;46.68;72522.66;4970318;28;20042;-84
2021/04/21 00:47:05;;;;;;;95.28;68.47;;;;;;;16.78;43.92;72450.81;4969483;28;20032;-84
2021/04/21 00:50:09;;;;;;;93.05;64.10;;;;;;;17.44;41.66;72529.00;4936542;29;20027;-86
2021/04/21 00:52:48;;;;;;;88.30;61.22;;;;;;;17.58;41.95;72547.97;4953391;29;20444;-85
2021/04/21 00:56:06;;;;;;;90.63;58.15;;;;;;;17.76;41.44;72566.13;4937855;29;20036;-85
2021/04/21 00:58:44;;;;;;;73.03;52.03;;;;;;;17.92;37.62;72582.53;4933981;28;20040;-85
2021/04/21 01:01:12;;;;;;;63.78;43.22;;;;;;;17.85;36.09;72573.53;4986317;28;20114;-84
2021/04/21 01:03:41;;;;;;;72.82;47.13;;;;;;;17.77;36.75;72567.34;4957622;28;20051;-85
2021/04/21 01:06:16;;;;;;;66.93;43.05;;;;;;;17.94;35.44;72583.72;4951504;29;20027;-84
2021/04/21 01:08:49;;;;;;;78.00;41.90;;;;;;;17.79;34.34;72566.94;4935420;29;20031;-83
2021/04/21 01:11:41;;;;;;;62.67;41.85;;;;;;;18.19;32.61;72613.69;4950586;29;20039;-84
2021/04/21 01:14:30;;;;;;;62.28;39.60;;;;;;;18.25;33.26;72619.66;4955235;28;20028;-83
2021/04/21 01:17:10;;;;;;;60.85;40.17;;;;;;;18.05;33.56;72602.47;4953688;28;20035;-85
2021/04/21 01:19:55;;;;;;;56.90;37.85;;;;;;;18.08;32.95;72603.28;5005758;28;20043;-84
2021/04/21 01:22:48;;;;;;;72.60;39.80;;;;;;;18.35;32.61;72631.66;4950710;28;20031;-85
2021/04/21 01:25:28;;;;;;;63.33;39.80;;;;;;;18.42;33.35;72640.03;4937053;29;20032;-85
2021/04/21 01:28:05;;;;;;;61.03;39.58;;;;;;;18.61;33.83;72664.38;4934804;29;20020;-84
2021/04/21 01:30:37;;;;;;;66.65;42.33;;;;;;;18.35;33.25;72631.66;4949025;29;20039;-85
2021/04/21 01:33:11;;;;;;;70.35;43.80;;;;;;;18.01;32.89;72595.47;4949457;29;20067;-86
2021/04/21 01:35:42;;;;;;;72.18;41.80;;;;;;;17.85;33.34;72576.91;4949440;28;20040;-85
2021/04/21 01:38:11;;;;;;;73.65;43.05;;;;;;;18.41;33.60;72638.22;4933315;29;20032;-86
2021/04/21 01:40:44;;;;;;;73.55;47.10;;;;;;;17.61;33.76;72549.38;4949009;29;20056;-86
2021/04/21 01:43:19;;;;;;;80.93;46.75;;;;;;;18.54;35.50;72656.00;4934414;29;20023;-85
2021/04/21 01:45:47;;;;;;;69.28;45.20;;;;;;;18.10;35.47;72602.91;4932939;29;20094;-84
2021/04/21 01:48:21;;;;;;;74.15;48.40;;;;;;;18.85;39.89;72694.72;4934253;29;20032;-84
2021/04/21 01:50:49;;;;;;;74.75;49.22;;;;;;;17.77;48.46;72567.34;4948839;29;20576;-85
2021/04/21 01:53:23;;;;;;;71.93;50.47;;;;;;;17.83;50.77;72574.50;4933655;29;20067;-85
2021/04/21 01:56:07;;;;;;;80.30;50.67;;;;;;;18.37;50.56;72636.22;4950250;28;21485;-85
2021/04/21 01:58:40;;;;;;;79.72;51.75;;;;;;;18.21;51.95;72614.88;4943616;29;20035;-85
2021/04/21 02:01:29;;;;;;;79.82;51.97;;;;;;;17.13;54.16;72493.09;4949394;29;20393;-86
2021/04/21 02:04:19;;;;;;;79.63;54.75;;;;;;;18.14;53.98;72607.69;4950123;29;20118;-86
2021/04/21 02:06:55;;;;;;;83.65;52.00;;;;;;;17.95;46.40;72590.47;4933993;29;20052;-86
2021/04/21 02:10:01;;;;;;;80.90;54.80;;;;;;;18.14;45.27;72604.91;4948636;29;20091;-85
2021/04/21 02:12:43;;;;;;;74.28;51.70;;;;;;;18.87;45.44;72692.16;4926069;29;20032;-85
2021/04/21 02:15:31;;;;;;;70.47;49.03;;;;;;;19.01;48.48;72711.16;4959462;28;20035;-85
2021/04/21 02:18:22;;;;;;;83.68;49.53;;;;;;;19.21;39.45;72736.72;4948819;28;20027;-84
2021/04/21 02:20:58;;;;;;;87.32;46.47;;;;;;;19.32;34.34;72745.91;4933986;29;20524;-85
2021/04/21 02:23:57;;;;;;;80.13;48.53;;;;;;;19.25;33.38;72735.94;4949149;29;20142;-85
2021/04/21 02:26:59;;;;;;;78.75;48.55;;;;;;;19.55;33.12;72770.09;4948848;29;20042;-84
2021/04/21 02:29:44;;;;;;;81.28;46.05;;;;;;;19.74;33.03;72795.06;4932292;29;20130;-85
2021/04/21 02:32:29;;;;;;;87.82;48.22;;;;;;;19.75;33.08;72793.47;4969798;28;20036;-85
2021/04/21 02:34:57;;;;;;;84.70;47.38;;;;;;;19.80;34.36;72799.47;4939960;29;20490;-85
2021/04/21 02:38:03;;;;;;;87.80;44.85;;;;;;;20.02;32.78;72824.66;4949033;29;20114;-83
2021/04/21 02:40:52;;;;;;;85.43;44.92;;;;;;;19.48;32.63;72761.72;4925653;28;20075;-84
2021/04/21 02:43:49;;;;;;;75.35;40.28;;;;;;;20.27;32.92;72856.25;4936280;29;20046;-85
2021/04/21 02:46:26;;;;;;;67.22;41.17;;;;;;;20.29;33.93;72855.88;4951363;28;20142;-85
2021/04/21 02:49:23;;;;;;;76.88;44.67;;;;;;;20.34;32.32;72866.84;4942539;29;20046;-84
2021/04/21 02:52:18;;;;;;;81.05;43.25;;;;;;;20.35;32.81;72862.47;4966879;28;20126;-84
2021/04/21 02:55:07;;;;;;;77.78;46.70;;;;;;;20.24;42.72;72849.88;4960378;28;20087;-86
2021/04/21 02:58:07;;;;;;;70.97;46.15;;;;;;;20.48;40.31;72877.44;4931201;29;20540;-85
2021/04/21 03:01:12;;;;;;;69.65;46.67;;;;;;;19.93;42.42;72813.88;4942845;29;20031;-85
2021/04/21 03:04:00;;;;;;;84.78;55.53;;;;;;;20.21;46.13;72846.28;4939335;29;20119;-85
2021/04/21 03:06:32;;;;;;;72.13;54.10;;;;;;;19.89;45.50;72811.84;4941404;29;20031;-84
2021/04/21 03:09:12;;;;;;;87.55;54.60;;;;;;;20.24;45.81;72850.47;4968002;28;20122;-84
2021/04/21 03:11:41;;;;;;;78.65;55.17;;;;;;;19.82;45.12;72801.88;4968994;28;20509;-85
2021/04/21 03:14:17;;;;;;;83.13;54.75;;;;;;;20.29;44.26;72852.47;4935934;29;20051;-88
2021/04/21 03:16:48;;;;;;;85.72;53.45;;;;;;;19.93;43.13;72819.44;4945284;29;20031;-85
2021/04/21 03:19:18;;;;;;;80.40;55.40;;;;;;;19.20;43.17;72732.13;4948310;29;20481;-84
2021/04/21 03:22:15;;;;;;;87.55;60.33;;;;;;;18.97;43.97;72700.75;4949050;29;20115;-84
2021/04/21 03:25:07;;;;;;;91.40;60.83;;;;;;;20.14;43.06;72840.66;4929797;29;20062;-86
2021/04/21 03:27:35;;;;;;;96.22;59.08;;;;;;;20.08;42.48;72834.06;4933604;29;20043;-86
2021/04/21 03:30:12;;;;;;;100.65;63.22;;;;;;;19.66;42.27;72783.28;4933101;29;20039;-84
2021/04/21 03:32:43;;;;;;;106.05;67.35;;;;;;;19.65;42.38;72781.47;4932749;29;20074;-85
2021/04/21 03:35:11;;;;;;;108.93;68.97;;;;;;;19.64;44.14;72780.88;4937727;29;20051;-88
2021/04/21 03:37:56;;;;;;;105.13;76.88;;;;;;;20.23;44.53;72848.66;4936943;29;20117;-88
2021/04/21 03:40:23;;;;;;;108.32;76.00;;;;;;;19.96;44.16;72817.47;4946565;29;20043;-86
2021/04/21 03:42:50;;;;;;;113.25;78.47;;;;;;;19.45;44.07;72758.72;4957290;29;20493;-86
2021/04/21 03:45:17;;;;;;;103.40;73.18;;;;;;;18.96;43.52;72701.75;4955769;28;20114;-86
2021/04/21 03:47:45;;;;;;;110.97;74.80;;;;;;;20.09;43.56;72830.28;4941822;29;20028;-88
2021/04/21 03:50:12;;;;;;;111.50;72.40;;;;;;;19.68;42.29;72785.09;4958600;28;20461;-88
2021/04/21 03:52:46;;;;;;;107.88;70.72;;;;;;;19.12;40.76;72720.34;4973145;28;20067;-88
2021/04/21 03:55:15;;;;;;;120.07;74.00;;;;;;;19.94;40.54;72821.28;4973646;28;20042;-86
2021/04/21 03:57:49;;;;;;;119.82;75.47;;;;;;;19.88;40.82;72808.47;4942401;29;20071;-87
2021/04/21 04:00:17;;;;;;;119.55;75.00;;;;;;;20.38;39.74;72863.25;4937384;29;20028;-89
2021/04/21 04:03:02;;;;;;;111.10;75.70;;;;;;;19.43;40.36;72756.28;4954222;28;20028;-88
2021/04/21 04:05:50;;;;;;;127.78;83.43;;;;;;;20.54;40.61;72886.84;4938783;29;20122;-87
2021/04/21 04:08:18;;;;;;;119.53;75.60;;;;;;;20.21;39.33;72852.44;4969129;28;20039;-88
2021/04/21 04:10:50;;;;;;;117.78;72.05;;;;;;;20.86;39.16;72921.88;4970666;28;20421;-88
2021/04/21 04:13:18;;;;;;;121.50;75.93;;;;;;;20.84;38.77;72919.47;4952734;29;20036;-88
2021/04/21 04:15:48;;;;;;;118.60;75.03;;;;;;;19.94;38.88;72815.06;4942153;29;20023;-87
2021/04/21 04:18:16;;;;;;;121.30;75.90;;;;;;;20.27;38.64;72856.25;4938478;29;20032;-88
2021/04/21 04:20:45;;;;;;;122.85;72.18;;;;;;;20.89;38.46;72927.66;4969746;28;20485;-87
2021/04/21 04:23:13;;;;;;;110.40;71.95;;;;;;;21.08;38.00;72943.69;4975828;28;20043;-86
2021/04/21 04:25:44;;;;;;;122.78;73.13;;;;;;;20.77;37.47;72911.06;4947683;29;20102;-87
2021/04/21 04:28:12;;;;;;;111.65;72.00;;;;;;;19.81;37.14;72806.25;4948491;29;20106;-86
2021/04/21 04:30:40;;;;;;;130.75;77.45;;;;;;;20.59;37.41;72890.06;4972797;28;20038;-87
2021/04/21 04:33:09;;;;;;;118.80;72.65;;;;;;;20.22;37.49;72850.84;4952993;29;20036;-88
2021/04/21 04:35:38;;;;;;;122.00;75.78;;;;;;;20.90;37.02;72923.88;4969047;28;20508;-87
2021/04/21 04:38:05;;;;;;;121.50;73.30;;;;;;;21.44;36.06;72989.09;4952628;29;20032;-88
2021/04/21 04:40:34;;;;;;;111.57;70.90;;;;;;;20.86;36.56;72924.66;4968003;28;20067;-88
2021/04/21 04:43:01;;;;;;;128.43;72.47;;;;;;;21.14;36.38;72959.88;4967156;28;20091;-87
2021/04/21 04:45:31;;;;;;;117.32;72.20;;;;;;;21.55;36.01;73001.09;4934956;29;20012;-87
2021/04/21 04:48:15;;;;;;;122.07;74.85;;;;;;;21.04;36.21;72942.88;4959388;28;20028;-87
2021/04/21 04:50:45;;;;;;;121.75;71.90;;;;;;;21.47;35.51;72992.09;4952107;29;20034;-87
2021/04/21 04:53:14;;;;;;;120.80;74.63;;;;;;;21.47;36.25;72992.09;4951567;29;20024;-87
2021/04/21 04:55:41;;;;;;;118.07;75.90;;;;;;;21.37;36.63;72977.28;4935681;29;20399;-88
2021/04/21 04:58:11;;;;;;;123.53;78.00;;;;;;;20.78;36.09;72912.84;4951880;29;20134;-88
2021/04/21 05:00:41;;;;;;;123.32;79.15;;;;;;;20.68;36.50;72905.84;4952172;28;20131;-88
2021/04/21 05:03:24;;;;;;;131.15;76.97;;;;;;;21.03;36.23;72941.06;4968142;28;20474;-87
2021/04/21 05:05:58;;;;;;;125.45;76.72;;;;;;;21.70;35.63;73016.31;4967423;28;20024;-88
2021/04/21 05:08:46;;;;;;;118.25;77.15;;;;;;;21.26;35.92;72967.50;4935518;29;20027;-88
2021/04/21 05:11:16;;;;;;;123.22;77.78;;;;;;;20.99;36.53;72936.88;4951593;29;20039;-89
2021/04/21 05:13:50;;;;;;;;;;;;;;;21.52;36.51;73003.09;4951962;28;20572;-86
2021/04/21 05:16:28;;;;;;;140.30;76.50;;;;;;;21.63;36.58;73010.69;4935379;29;19918;-88
2021/04/21 05:19:28;;;;;;;130.52;79.25;;;;;;;21.58;37.13;73004.69;4951481;29;20028;-88
2021/04/21 05:22:13;;;;;;;131.05;73.18;;;;;;;21.60;37.77;73007.72;4952129;29;20087;-87
2021/04/21 05:25:05;;;;;;;124.70;74.78;;;;;;;21.48;37.49;72993.28;4950789;29;20032;-87
2021/04/21 05:28:02;;;;;;;124.43;73.82;;;;;;;21.08;37.22;72949.88;4950871;29;20515;-87
2021/04/21 05:30:47;;;;;;;124.00;74.90;;;;;;;20.70;37.40;72902.66;4950741;29;20118;-88
2021/04/21 05:33:50;;;;;;;123.47;74.90;;;;;;;20.66;36.65;72895.66;4951541;29;20122;-88
2021/04/21 05:36:41;;;;;;;122.63;73.50;;;;;;;21.35;36.87;72974.88;4950774;29;20036;-87
2021/04/21 05:39:23;;;;;;;117.68;72.05;;;;;;;21.31;36.54;72976.28;4951547;29;20024;-86
2021/04/21 05:42:00;;;;;;;119.75;73.15;;;;;;;21.28;36.73;72973.28;4951021;28;20081;-87
2021/04/21 05:44:55;;;;;;;118.40;74.45;;;;;;;21.32;36.87;72975.28;4962828;28;20043;-86
2021/04/21 05:47:56;;;;;;;122.22;73.90;;;;;;;21.06;36.76;72944.69;4968869;28;20099;-88
2021/04/21 05:50:59;;;;;;;128.65;77.68;;;;;;;21.40;35.03;72984.28;4953926;28;20042;-87
2021/04/21 05:53:56;;;;;;;127.78;76.93;;;;;;;21.89;34.91;73040.75;4945470;29;20079;-88
2021/04/21 05:57:12;;;;;;;121.90;73.70;;;;;;;21.91;35.58;73043.13;4945828;29;20051;-88
2021/04/21 06:00:25;;;;;;;116.75;75.60;;;;;;;21.97;35.76;73049.75;4962122;29;20629;-87
2021/04/21 06:02:53;;;;;;;125.47;73.90;;;;;;;21.92;36.93;73044.34;4946083;29;20163;-88
2021/04/21 06:05:20;;;;;;;120.43;71.50;;;;;;;21.96;36.15;73049.16;4936422;29;20032;-88
2021/04/21 06:07:47;;;;;;;111.85;67.90;;;;;;;21.43;36.37;72990.69;4933611;29;20047;-87
2021/04/21 06:10:29;;;;;;;120.53;67.43;;;;;;;21.60;35.62;73007.09;4949537;28;20043;-88
2021/04/21 06:13:00;;;;;;;113.55;65.93;;;;;;;22.22;34.65;73078.56;4949659;29;20440;-86
2021/04/21 06:15:36;;;;;;;116.03;65.93;;;;;;;21.82;34.41;73032.91;4950056;28;20020;-88
2021/04/21 06:18:05;;;;;;;106.20;63.63;;;;;;;21.25;34.29;72966.28;4972869;28;20027;-85
2021/04/21 06:20:41;;;;;;;109.95;65.03;;;;;;;22.47;35.01;73108.00;4968292;28;20030;-88
2021/04/21 06:23:15;;;;;;;108.70;64.30;;;;;;;22.26;34.74;73083.97;4949930;29;20036;-87
2021/04/21 06:25:47;;;;;;;102.80;62.13;;;;;;;21.92;34.30;73044.34;4934086;28;20571;-88
2021/04/21 06:28:16;;;;;;;107.18;64.25;;;;;;;22.15;34.27;73068.56;4965757;28;20114;-87
2021/04/21 06:31:05;;;;;;;103.30;62.67;;;;;;;22.06;33.63;73060.56;4949882;29;20059;-87
2021/04/21 06:33:42;;;;;;;114.85;60.65;;;;;;;21.70;33.41;73019.13;4949959;29;20032;-88
2021/04/21 06:36:12;;;;;;;107.60;61.10;;;;;;;22.14;33.27;73069.56;4934688;29;20032;-88
2021/04/21 06:38:40;;;;;;;;;;;;;;;22.05;33.10;73055.97;4934887;29;20036;-88
2021/04/21 06:41:07;;;;;;;99.63;58.78;;;;;;;22.18;33.79;73074.38;4936721;29;19922;-86
2021/04/21 06:43:36;;;;;;;114.13;62.78;;;;;;;22.04;33.19;73057.56;4951214;28;20106;-87
2021/04/21 06:46:09;;;;;;;106.47;58.72;;;;;;;21.22;33.75;72963.28;4949958;28;20024;-87
2021/04/21 06:48:39;;;;;;;113.80;57.80;;;;;;;22.20;34.40;73076.16;4933991;29;20035;-88
2021/04/21 06:51:17;;;;;;;100.55;58.33;;;;;;;22.46;33.95;73106.78;4934243;28;20567;-86
2021/04/21 06:53:46;;;;;;;102.20;59.78;;;;;;;22.19;34.08;73078.38;4949518;29;20067;-88
2021/04/21 06:56:13;;;;;;;100.57;58.13;;;;;;;22.14;33.42;73072.97;4933324;29;20028;-89
2021/04/21 06:58:41;;;;;;;101.50;57.28;;;;;;;22.59;32.76;73121.25;4948950;29;20570;-86
2021/04/21 07:01:18;;;;;;;89.75;52.90;;;;;;;22.12;32.38;73070.56;4949025;28;20066;-87
2021/04/21 07:03:44;;;;;;;98.20;51.92;;;;;;;21.29;31.51;72971.09;4935207;29;20019;-88
2021/04/21 07:06:13;;;;;;;93.55;51.30;;;;;;;22.05;32.38;73059.34;4933670;29;20110;-87
2021/04/21 07:08:40;;;;;;;96.68;54.72;;;;;;;21.57;32.27;73004.09;4951162;28;20503;-88
2021/04/21 07:11:09;;;;;;;104.85;56.42;;;;;;;21.49;32.53;72996.69;4953043;29;20130;-86
2021/04/21 07:13:42;;;;;;;102.78;56.10;;;;;;;22.20;33.06;73076.78;4937200;29;20392;-90
2021/04/21 07:16:15;;;;;;;93.65;54.58;;;;;;;22.15;33.15;73070.75;4969205;28;20066;-87
2021/04/21 07:18:49;;;;;;;86.47;52.53;;;;;;;21.71;33.99;73020.34;4937017;29;20024;-87
2021/04/21 07:21:17;;;;;;;92.50;48.15;;;;;;;21.62;34.71;73006.69;4952928;28;20019;-87
2021/04/21 07:23:51;;;;;;;79.70;44.05;;;;;;;21.84;35.30;73037.53;4938323;29;20028;-88
2021/04/21 07:26:19;;;;;;;80.75;43.75;;;;;;;21.26;35.95;72962.50;4952239;29;20118;-88
2021/04/21 07:28:47;;;;;;;82.95;43.92;;;;;;;21.60;36.69;73004.91;4936939;29;20031;-88
2021/04/21 07:31:18;;;;;;;82.47;47.63;;;;;;;21.07;36.36;72945.88;4936954;29;20482;-86
2021/04/21 07:33:47;;;;;;;76.93;44.50;;;;;;;21.51;36.61;72996.28;4936807;29;20036;-85
2021/04/21 07:36:17;;;;;;;87.95;50.15;;;;;;;21.53;36.52;72998.69;4953097;29;20063;-88
2021/04/21 07:38:46;;;;;;;90.88;47.72;;;;;;;21.13;36.09;72950.28;4938004;29;20028;-87
2021/04/21 07:41:15;;;;;;;91.45;50.60;;;;;;;21.13;36.35;72955.25;4944591;28;20052;-87
2021/04/21 07:43:46;;;;;;;103.28;56.28;;;;;;;20.23;35.23;72848.66;4939179;28;20316;-88
2021/04/21 07:46:23;;;;;;;103.80;54.35;;;;;;;20.59;35.80;72890.66;4953030;28;20024;-86
2021/04/21 07:48:54;;;;;;;99.07;55.20;;;;;;;20.97;35.82;72939.47;4936763;29;20036;-87
2021/04/21 07:51:21;;;;;;;90.75;54.83;;;;;;;21.42;34.92;72986.09;4968868;28;20437;-86
2021/04/21 07:54:03;;;;;;;100.72;54.80;;;;;;;20.75;35.05;72903.66;4937845;29;20039;-88
2021/04/21 07:56:51;;;;;;;97.90;57.72;;;;;;;21.61;34.70;73008.28;4933903;29;20028;-88
2021/04/21 07:59:19;;;;;;;104.43;60.05;;;;;;;21.46;35.46;72991.47;4952068;28;20122;-89
2021/04/21 08:01:48;;;;;;;93.13;60.33;;;;;;;21.37;35.36;72983.47;4951693;29;20075;-88
2021/04/21 08:04:28;;;;;;;98.50;57.92;;;;;;;20.80;35.55;72914.63;4967878;28;20070;-85
2021/04/21 08:06:58;;;;;;;102.25;59.10;;;;;;;20.67;35.68;72896.28;4951612;29;20478;-87
2021/04/21 08:09:35;;;;;;;88.75;51.92;;;;;;;20.65;35.16;72897.25;4936258;29;20061;-88
2021/04/21 08:12:14;;;;;;;93.55;51.38;;;;;;;21.21;35.69;72961.47;4935797;29;20040;-87
2021/04/21 08:14:50;;;;;;;80.20;47.90;;;;;;;20.01;36.61;72826.28;4952314;29;20122;-88
2021/04/21 08:17:20;;;;;;;83.88;46.67;;;;;;;19.94;37.50;72812.28;4938463;29;20042;-86
2021/04/21 08:19:52;;;;;;;79.22;46.97;;;;;;;20.97;38.76;72933.88;4942202;29;20066;-84
2021/04/21 08:22:25;;;;;;;74.72;47.22;;;;;;;20.91;39.44;72930.06;4966029;28;20039;-86
2021/04/21 08:24:53;;;;;;;77.13;47.83;;;;;;;20.61;39.32;72893.06;4957177;28;20547;-86
2021/04/21 08:27:22;;;;;;;82.85;45.20;;;;;;;20.79;39.34;72913.44;4935382;29;20608;-85
2021/04/21 08:29:50;;;;;;;83.72;47.90;;;;;;;19.96;39.73;72818.09;4949900;28;20091;-87
2021/04/21 08:32:21;;;;;;;82.90;45.28;;;;;;;20.90;38.39;72926.69;4950158;29;20027;-87
2021/04/21 08:34:49;;;;;;;72.72;43.78;;;;;;;20.10;39.53;72836.47;4968956;28;20068;-85
2021/04/21 08:37:17;;;;;;;78.82;43.47;;;;;;;20.08;40.02;72828.47;4957600;28;20028;-88
2021/04/21 08:39:45;;;;;;;83.70;46.00;;;;;;;20.02;39.43;72824.66;4963448;28;20031;-87
2021/04/21 08:42:13;;;;;;;98.15;44.60;;;;;;;19.87;39.89;72804.47;4953521;28;20489;-85
2021/04/21 08:44:42;;;;;;;75.82;45.00;;;;;;;20.17;38.88;72841.47;4952084;29;20541;-85
2021/04/21 08:47:13;;;;;;;85.85;42.03;;;;;;;20.06;38.96;72829.47;4965629;28;20035;-85
2021/04/21 08:49:41;;;;;;;81.22;46.80;;;;;;;20.13;38.86;72836.69;4951938;28;20481;-84
2021/04/21 08:52:10;;;;;;;70.70;41.92;;;;;;;20.45;38.99;72880.03;4940376;29;20043;-87
2021/04/21 08:54:39;;;;;;;76.23;43.47;;;;;;;20.50;38.54;72880.47;4954549;28;20031;-86
2021/04/21 08:57:06;;;;;;;83.32;45.38;;;;;;;20.44;38.56;72872.66;4969932;28;20443;-85
2021/04/21 08:59:34;;;;;;;82.78;43.85;;;;;;;19.73;38.26;72791.06;4933328;29;20115;-86
2021/04/21 09:02:01;;;;;;;84.93;44.92;;;;;;;19.94;38.32;72809.47;4936452;29;20020;-86
2021/04/21 09:04:29;;;;;;;82.32;46.60;;;;;;;19.75;38.77;72793.47;4941134;29;20058;-86
2021/04/21 09:06:56;;;;;;;81.53;48.40;;;;;;;19.99;39.65;72821.09;4936029;29;20031;-88
2021/04/21 09:09:23;;;;;;;79.82;45.95;;;;;;;19.38;40.51;72750.91;4952370;29;20035;-90
2021/04/21 09:11:50;;;;;;;84.50;48.20;;;;;;;18.93;41.51;72698.75;4938668;29;20050;-90
2021/04/21 09:14:17;;;;;;;81.45;47.25;;;;;;;18.64;40.75;72662.41;4957716;28;20481;-87
2021/04/21 09:16:44;;;;;;;90.40;46.78;;;;;;;18.70;40.30;72674.56;4943069;29;20044;-88
2021/04/21 09:19:14;;;;;;;88.88;49.10;;;;;;;19.70;40.16;72787.47;4939983;29;20062;-87
2021/04/21 09:21:42;;;;;;;90.68;49.10;;;;;;;19.61;40.88;72774.50;4939515;29;20035;-86
2021/04/21 09:24:24;;;;;;;83.47;46.10;;;;;;;18.63;41.68;72669.56;4954332;29;20059;-87
2021/04/21 09:26:51;;;;;;;84.78;46.97;;;;;;;19.49;41.88;72763.50;4980325;28;20039;-87
2021/04/21 09:29:35;;;;;;;84.82;44.80;;;;;;;19.53;42.08;72767.69;4957653;29;20019;-89
2021/04/21 09:32:12;;;;;;;85.55;46.63;;;;;;;19.61;43.00;72776.69;4952737;28;20485;-90
2021/04/21 09:34:55;;;;;;;84.05;46.33;;;;;;;18.61;41.69;72661.59;4952736;28;20024;-91
2021/04/21 09:37:26;;;;;;;81.30;49.92;;;;;;;19.65;41.73;72782.09;4969226;28;20493;-89
2021/04/21 09:39:54;;;;;;;77.40;44.10;;;;;;;18.30;41.44;72628.44;4951609;29;20564;-93
2021/04/21 09:42:27;;;;;;;76.38;45.92;;;;;;;18.39;42.52;72636.44;4968134;28;20379;-88
2021/04/21 09:44:54;;;;;;;79.45;44.17;;;;;;;19.54;41.75;72769.50;4949690;28;20487;-92
2021/04/21 09:47:21;;;;;;;97.78;46.85;;;;;;;19.31;41.88;72741.94;4935477;29;20091;-91
2021/04/21 09:49:56;;;;;;;99.53;45.20;;;;;;;18.76;41.05;72678.38;4953241;29;20397;-91
2021/04/21 09:52:22;;;;;;;75.22;44.63;;;;;;;19.43;41.01;72756.28;4954225;29;20512;-92
2021/04/21 09:54:52;;;;;;;81.78;43.25;;;;;;;17.94;41.29;72586.50;4954289;29;20034;-91
2021/04/21 09:57:31;;;;;;;79.20;41.28;;;;;;;19.31;40.87;72744.72;4970585;28;20421;-91
2021/04/21 10:00:08;;;;;;;83.25;43.65;;;;;;;18.90;40.52;72695.13;4951161;29;20035;-90
2021/04/21 10:02:40;;;;;;;88.22;41.67;;;;;;;18.26;40.28;72620.88;4962938;28;20094;-92
2021/04/21 10:05:28;;;;;;;83.53;39.85;;;;;;;19.31;39.07;72741.94;4940415;29;20095;-91
2021/04/21 10:08:15;;;;;;;72.78;41.15;;;;;;;19.23;38.84;72736.31;4943001;29;20055;-92
2021/04/21 10:10:45;;;;;;;87.03;42.13;;;;;;;19.23;38.92;72739.09;4940473;29;20028;-90
2021/04/21 10:13:21;;;;;;;88.35;39.65;;;;;;;19.20;38.57;72732.72;4970567;28;20032;-91
2021/04/21 10:15:51;;;;;;;83.47;42.58;;;;;;;18.88;39.14;72692.75;4935602;29;20047;-88
2021/04/21 10:18:18;;;;;;;72.00;37.72;;;;;;;18.91;38.70;72699.16;4937302;29;20118;-86
2021/04/21 10:20:46;;;;;;;76.32;40.85;;;;;;;18.32;39.21;72628.06;4935910;29;20106;-86
2021/04/21 10:23:13;;;;;;;80.65;40.45;;;;;;;18.36;40.82;72632.84;4970307;28;20038;-87
2021/04/21 10:25:41;;;;;;;72.85;39.00;;;;;;;17.93;42.83;72574.75;4967641;28;20032;-91
2021/04/21 10:28:09;;;;;;;79.97;45.03;;;;;;;18.65;46.21;72666.38;4937626;29;20047;-88
2021/04/21 10:30:37;;;;;;;71.50;44.60;;;;;;;18.36;48.84;72635.63;4934948;29;20027;-89
2021/04/21 10:33:04;;;;;;;72.25;44.92;;;;;;;17.99;49.62;72595.25;4937009;29;20456;-88
2021/04/21 10:35:31;;;;;;;74.78;44.45;;;;;;;17.19;51.64;72503.06;4964096;28;20060;-85
2021/04/21 10:37:58;;;;;;;75.68;41.72;;;;;;;16.75;48.65;72446.63;4981263;28;20039;-88
2021/04/21 10:40:31;;;;;;;84.82;48.83;;;;;;;16.73;50.80;72444.81;4951449;28;20058;-90
2021/04/21 10:43:04;;;;;;;79.95;49.70;;;;;;;15.92;50.37;72353.69;4937191;29;20039;-87
2021/04/21 10:45:49;;;;;;;82.85;50.67;;;;;;;16.28;51.91;72392.75;4939512;29;20015;-88
2021/04/21 10:48:43;;;;;;;87.57;50.67;;;;;;;16.36;53.85;72402.34;4953979;29;20754;-88
2021/04/21 10:51:39;;;;;;;75.03;50.03;;;;;;;16.36;54.08;72407.28;4954078;29;20059;-89
2021/04/21 10:54:08;;;;;;;77.15;47.78;;;;;;;16.36;55.53;72405.13;4963219;28;20122;-88
2021/04/21 10:56:37;;;;;;;86.28;47.13;;;;;;;16.25;55.60;72392.56;4970755;28;20023;-88
2021/04/21 10:59:05;;;;;;;83.75;51.60;;;;;;;15.44;56.31;72299.25;4971253;28;20036;-88
2021/04/21 11:01:35;;;;;;;74.72;51.00;;;;;;;15.72;56.38;72328.78;4938587;29;20027;-89
2021/04/21 11:04:04;;;;;;;81.82;51.72;;;;;;;16.28;55.75;72393.38;4970354;28;20031;-88
2021/04/21 11:06:40;;;;;;;76.32;48.22;;;;;;;16.39;54.32;72410.88;4954805;29;20102;-87
2021/04/21 11:09:12;;;;;;;77.18;48.97;;;;;;;15.39;51.50;72289.91;4971044;28;20511;-87
2021/04/21 11:11:49;;;;;;;72.60;45.75;;;;;;;15.52;51.51;72310.41;4955680;29;20035;-87
2021/04/21 11:14:36;;;;;;;77.10;45.28;;;;;;;16.25;47.74;72391.97;4970231;28;20485;-88
2021/04/21 11:17:07;;;;;;;69.97;42.15;;;;;;;16.38;47.19;72410.28;4970395;28;20036;-88
2021/04/21 11:19:41;;;;;;;64.40;39.75;;;;;;;15.59;46.93;72318.75;4938641;29;20036;-88
2021/04/21 11:22:17;;;;;;;63.70;40.80;;;;;;;16.04;45.96;72365.25;4954181;29;20028;-88
2021/04/21 11:24:45;;;;;;;64.90;39.45;;;;;;;15.93;47.33;72354.88;4968494;28;20425;-87
2021/04/21 11:27:43;;;;;;;73.35;40.08;;;;;;;16.06;48.11;72367.06;4969528;28;20032;-87
2021/04/21 11:30:33;;;;;;;65.55;37.97;;;;;;;15.73;48.60;72332.75;4969213;28;20039;-85
2021/04/21 11:33:00;;;;;;;66.07;38.13;;;;;;;15.66;48.66;72321.59;4958408;28;20028;-89
2021/04/21 11:35:33;;;;;;;65.13;39.50;;;;;;;15.34;48.71;72287.31;4946053;29;20553;-87
2021/04/21 11:38:00;;;;;;;55.10;38.05;;;;;;;15.42;48.78;72294.09;4952196;29;20047;-86
2021/04/21 11:40:31;;;;;;;70.13;37.42;;;;;;;16.01;49.02;72367.81;4970004;28;20047;-86
2021/04/21 11:43:38;;;;;;;67.53;39.10;;;;;;;15.36;48.85;72284.16;4963530;28;20035;-86
2021/04/21 11:46:05;;;;;;;62.42;37.83;;;;;;;15.51;49.13;72304.25;4928566;29;20044;-86
2021/04/21 11:48:39;;;;;;;66.40;36.55;;;;;;;15.92;50.28;72357.03;4950586;29;20012;-87
2021/04/21 11:51:16;;;;;;;64.85;38.92;;;;;;;15.44;49.66;72299.25;4943386;29;20126;-86
2021/04/21 11:53:43;;;;;;;64.18;38.22;;;;;;;15.79;50.01;72335.94;4937929;29;20038;-86